createdAt,value
2022-10-21T00:01:09.825Z,857.93
2022-10-21T00:03:38.357Z,860.83
2022-10-21T00:06:07.049Z,854.93
2022-10-21T00:08:36.040Z,868.00
2022-10-21T00:11:06.393Z,841.83
2022-10-21T00:13:35.857Z,844.87
2022-10-21T00:16:05.676Z,860.23
2022-10-21T00:18:37.475Z,865.90
2022-10-21T00:21:09.669Z,873.90
2022-10-21T00:23:37.946Z,868.77
2022-10-21T00:26:06.587Z,850.43
2022-10-21T00:28:34.810Z,843.23
2022-10-21T00:31:03.494Z,843.77
2022-10-21T00:33:31.601Z,868.77
2022-10-21T00:36:02.993Z,858.80
2022-10-21T00:38:31.947Z,846.40
2022-10-21T00:41:00.435Z,858.30
2022-10-21T00:43:29.913Z,868.60
2022-10-21T00:46:00.784Z,848.43
2022-10-21T00:48:32.967Z,842.90
2022-10-21T00:51:06.566Z,842.23
2022-10-21T00:53:37.033Z,856.30
2022-10-21T00:56:09.885Z,856.13
2022-10-21T00:58:41.250Z,836.17
2022-10-21T01:01:10.252Z,822.03
2022-10-21T01:03:38.544Z,842.00
2022-10-21T01:06:12.114Z,838.60
2022-10-21T01:08:40.681Z,842.07
2022-10-21T01:11:13.601Z,856.23
2022-10-21T01:13:50.832Z,826.63
2022-10-21T01:16:22.552Z,829.10
2022-10-21T01:18:57.844Z,853.40
2022-10-21T01:21:32.779Z,846.70
2022-10-21T01:24:31.777Z,828.00
2022-10-21T01:27:09.100Z,845.47
2022-10-21T01:30:10.735Z,858.10
2022-10-21T01:33:19.307Z,858.97
2022-10-21T01:35:51.223Z,844.23
2022-10-21T01:38:24.282Z,848.33
2022-10-21T01:40:58.066Z,869.53
2022-10-21T01:43:33.335Z,853.40
2022-10-21T01:46:03.017Z,870.10
2022-10-21T01:48:34.973Z,861.63
2022-10-21T01:51:05.804Z,840.10
2022-10-21T01:53:39.992Z,848.20
2022-10-21T01:56:09.548Z,850.47
2022-10-21T01:58:39.030Z,851.20
2022-10-21T02:01:08.628Z,862.33
2022-10-21T02:03:40.375Z,853.47
2022-10-21T02:06:08.626Z,863.67
2022-10-21T02:08:36.914Z,865.70
2022-10-21T02:11:07.505Z,856.47
2022-10-21T02:13:39.438Z,835.97
2022-10-21T02:16:10.673Z,844.67
2022-10-21T02:18:40.405Z,833.53
2022-10-21T02:21:10.721Z,841.87
2022-10-21T02:23:41.509Z,856.43
2022-10-21T02:26:10.129Z,856.03
2022-10-21T02:31:21.036Z,853.60
2022-10-21T02:34:01.290Z,846.10
2022-10-21T02:36:35.262Z,833.40
2022-10-21T02:39:08.387Z,831.03
2022-10-21T02:41:39.486Z,820.63
2022-10-21T02:44:08.212Z,830.77
2022-10-21T02:46:38.794Z,829.07
2022-10-21T02:49:08.633Z,836.00
2022-10-21T02:51:37.121Z,829.90
2022-10-21T02:54:05.385Z,834.43
2022-10-21T02:56:33.695Z,840.03
2022-10-21T02:59:01.883Z,828.07
2022-10-21T03:01:30.187Z,816.93
2022-10-21T03:03:58.414Z,846.37
2022-10-21T03:06:31.229Z,832.47
2022-10-21T03:09:00.822Z,818.97
2022-10-21T03:11:29.032Z,820.67
2022-10-21T03:13:57.366Z,837.83
2022-10-21T03:16:25.719Z,848.43
2022-10-21T03:18:53.930Z,814.23
2022-10-21T03:21:22.217Z,828.77
2022-10-21T03:23:54.153Z,816.63
2022-10-21T03:26:25.541Z,830.77
2022-10-21T03:28:53.778Z,815.63
2022-10-21T03:31:22.172Z,835.93
2022-10-21T03:33:50.412Z,839.10
2022-10-21T03:36:18.828Z,852.20
2022-10-21T03:38:47.028Z,828.47
2022-10-21T03:41:16.894Z,811.87
2022-10-21T03:43:45.068Z,832.43
2022-10-21T03:46:13.371Z,829.97
2022-10-21T03:48:41.586Z,818.50
2022-10-21T03:51:09.819Z,817.90
2022-10-21T03:53:43.368Z,811.23
2022-10-21T03:56:12.240Z,836.40
2022-10-21T03:58:42.493Z,819.07
2022-10-21T04:01:13.645Z,836.23
2022-10-21T04:03:42.317Z,835.63
2022-10-21T04:06:10.508Z,844.13
2022-10-21T04:08:38.796Z,848.00
2022-10-21T04:11:07.102Z,847.27
2022-10-21T04:13:35.390Z,839.37
2022-10-21T04:16:07.401Z,843.97
2022-10-21T04:18:35.523Z,835.93
2022-10-21T04:21:03.804Z,823.23
2022-10-21T04:23:31.965Z,803.93
2022-10-21T04:26:00.661Z,834.33
2022-10-21T04:28:28.850Z,819.07
2022-10-21T04:30:57.186Z,831.63
2022-10-21T04:33:26.812Z,826.73
2022-10-21T04:35:55.197Z,835.70
2022-10-21T04:38:23.542Z,806.83
2022-10-21T04:40:57.079Z,816.10
2022-10-21T04:43:25.421Z,840.43
2022-10-21T04:45:55.569Z,813.00
2022-10-21T04:48:24.331Z,822.63
2022-10-21T04:51:02.673Z,809.70
2022-10-21T04:53:30.937Z,835.60
2022-10-21T04:56:04.846Z,851.67
2022-10-21T04:58:33.390Z,823.27
2022-10-21T05:01:02.058Z,820.13
2022-10-21T05:03:56.514Z,821.23
2022-10-21T05:06:27.717Z,815.43
2022-10-21T05:09:11.245Z,822.63
2022-10-21T05:11:42.315Z,824.97
2022-10-21T05:14:10.908Z,812.37
2022-10-21T05:16:39.442Z,824.27
2022-10-21T05:19:07.979Z,832.70
2022-10-21T05:24:10.608Z,832.67
2022-10-21T05:26:38.873Z,838.23
2022-10-21T05:29:07.017Z,831.57
2022-10-21T05:31:35.153Z,860.47
2022-10-21T05:37:14.487Z,830.87
2022-10-21T05:39:49.692Z,834.70
2022-10-21T05:42:55.315Z,827.87
2022-10-21T05:45:23.690Z,823.07
2022-10-21T05:47:54.341Z,843.03
2022-10-21T05:50:26.561Z,836.73
2022-10-21T05:53:01.002Z,855.60
2022-10-21T05:55:29.910Z,847.63
2022-10-21T05:57:59.394Z,852.90
2022-10-21T06:00:27.749Z,833.07
2022-10-21T06:02:57.832Z,829.90
2022-10-21T06:05:29.474Z,836.73
2022-10-21T06:08:01.289Z,818.67
2022-10-21T06:10:29.645Z,836.13
2022-10-21T06:12:57.790Z,829.87
2022-10-21T06:15:25.897Z,839.33
2022-10-21T06:17:53.977Z,844.53
2022-10-21T06:20:21.988Z,828.10
2022-10-21T06:22:50.316Z,841.27
2022-10-21T06:25:21.434Z,855.17
2022-10-21T06:27:49.945Z,831.40
2022-10-21T06:30:18.308Z,826.50
2022-10-21T06:32:46.244Z,840.50
2022-10-21T06:35:14.440Z,839.17
2022-10-21T06:37:42.463Z,824.63
2022-10-21T06:40:11.609Z,845.60
2022-10-21T06:42:41.338Z,842.27
2022-10-21T06:45:09.821Z,842.97
2022-10-21T06:47:38.160Z,811.23
2022-10-21T06:50:07.902Z,829.47
2022-10-21T06:52:36.065Z,838.37
2022-10-21T06:55:04.245Z,829.33
2022-10-21T06:57:32.332Z,833.20
2022-10-21T07:00:01.812Z,816.80
2022-10-21T07:02:30.311Z,816.83
2022-10-21T07:04:59.045Z,824.33
2022-10-21T07:07:27.199Z,829.10
2022-10-21T07:09:57.721Z,833.50
2022-10-21T07:12:26.191Z,820.23
2022-10-21T07:14:54.835Z,835.77
2022-10-21T07:17:24.493Z,829.13
2022-10-21T07:19:52.673Z,816.23
2022-10-21T07:22:20.713Z,809.73
2022-10-21T07:24:48.783Z,810.50
2022-10-21T07:27:16.735Z,840.40
2022-10-21T07:29:44.758Z,820.40
2022-10-21T07:32:12.806Z,829.60
2022-10-21T07:34:42.296Z,827.43
2022-10-21T07:37:10.342Z,815.13
2022-10-21T07:39:38.438Z,823.83
2022-10-21T07:42:06.442Z,821.27
2022-10-21T07:44:34.471Z,832.17
2022-10-21T07:47:02.506Z,829.10
2022-10-21T07:49:30.521Z,814.33
2022-10-21T07:52:01.095Z,825.07
2022-10-21T07:54:29.449Z,813.70
2022-10-21T07:56:58.518Z,835.13
2022-10-21T07:59:26.572Z,820.17
2022-10-21T08:01:54.717Z,809.33
2022-10-21T08:04:24.907Z,811.50
2022-10-21T08:06:53.061Z,813.30
2022-10-21T08:09:22.662Z,813.33
2022-10-21T08:11:50.665Z,832.53
2022-10-21T08:14:19.168Z,831.53
2022-10-21T08:16:47.252Z,815.13
2022-10-21T08:19:19.873Z,819.80
2022-10-21T08:21:48.112Z,820.47
2022-10-21T08:24:16.246Z,832.40
2022-10-21T08:26:45.752Z,801.30
2022-10-21T08:29:13.855Z,820.47
2022-10-21T08:31:42.010Z,814.07
2022-10-21T08:34:10.287Z,835.00
2022-10-21T08:36:39.185Z,803.80
2022-10-21T08:39:07.795Z,816.80
2022-10-21T08:41:58.455Z,828.73
2022-10-21T08:44:31.671Z,830.10
2022-10-21T08:47:05.441Z,843.27
2022-10-21T08:49:44.171Z,852.63
2022-10-21T08:52:14.714Z,821.37
2022-10-21T08:54:45.080Z,816.50
2022-10-21T08:57:14.958Z,811.40
2022-10-21T08:59:43.215Z,820.13
2022-10-21T09:02:23.658Z,840.00
2022-10-21T09:04:56.411Z,824.20
2022-10-21T09:07:29.006Z,808.17
2022-10-21T09:10:00.481Z,820.33
2022-10-21T09:12:32.612Z,815.83
2022-10-21T09:15:18.397Z,817.47
2022-10-21T09:18:01.439Z,833.93
2022-10-21T09:20:43.986Z,819.67
2022-10-21T09:26:02.291Z,834.80
2022-10-21T09:28:32.664Z,821.67
2022-10-21T09:31:02.240Z,833.67
2022-10-21T09:33:32.814Z,828.17
2022-10-21T09:36:04.300Z,830.00
2022-10-21T09:38:44.041Z,831.23
2022-10-21T09:41:16.306Z,822.37
2022-10-21T09:43:46.055Z,817.30
2022-10-21T09:46:14.779Z,831.30
2022-10-21T09:49:14.359Z,830.90
2022-10-21T09:51:35.564Z,828.87
2022-10-21T09:54:09.383Z,818.03
2022-10-21T09:56:40.911Z,788.00
2022-10-21T09:59:12.629Z,792.50
2022-10-21T10:01:42.016Z,790.27
2022-10-21T10:04:14.562Z,776.10
2022-10-21T10:06:44.565Z,774.33
2022-10-21T10:09:16.382Z,779.13
2022-10-21T10:11:51.012Z,780.63
2022-10-21T10:14:27.295Z,772.20
2022-10-21T10:16:55.851Z,765.43
2022-10-21T10:19:25.696Z,762.97
2022-10-21T10:22:12.347Z,765.33
2022-10-21T10:24:41.371Z,761.20
2022-10-21T10:27:14.631Z,746.63
2022-10-21T10:29:50.857Z,759.10
2022-10-21T10:32:18.930Z,763.93
2022-10-21T10:34:53.139Z,739.07
2022-10-21T10:37:23.195Z,757.87
2022-10-21T10:39:55.642Z,758.90
2022-10-21T10:42:25.862Z,774.93
2022-10-21T10:44:57.151Z,797.87
2022-10-21T10:47:28.478Z,795.53
2022-10-21T10:49:56.531Z,792.00
2022-10-21T10:52:26.225Z,799.40
2022-10-21T10:55:17.850Z,803.50
2022-10-21T10:57:59.018Z,777.23
2022-10-21T11:00:38.510Z,803.03
2022-10-21T11:03:08.762Z,800.87
2022-10-21T11:05:38.911Z,801.73
2022-10-21T11:08:11.814Z,812.47
2022-10-21T11:10:43.603Z,843.30
2022-10-21T11:13:14.683Z,846.80
2022-10-21T11:15:55.809Z,871.17
2022-10-21T11:18:28.965Z,848.47
2022-10-21T11:21:07.406Z,875.07
2022-10-21T11:23:48.067Z,880.53
2022-10-21T11:26:21.965Z,859.27
2022-10-21T11:28:54.928Z,872.87
2022-10-21T11:31:29.362Z,891.03
2022-10-21T11:34:00.080Z,874.67
2022-10-21T11:36:33.609Z,894.67
2022-10-21T11:39:21.252Z,926.70
2022-10-21T11:41:52.862Z,870.10
2022-10-21T11:44:29.139Z,876.47
2022-10-21T11:47:06.639Z,868.50
2022-10-21T11:49:43.464Z,859.80
2022-10-21T11:52:18.807Z,857.47
2022-10-21T11:55:15.896Z,810.73
2022-10-21T11:57:51.212Z,820.93
2022-10-21T12:00:21.267Z,826.27
2022-10-21T12:03:06.990Z,771.33
2022-10-21T12:05:37.181Z,686.20
2022-10-21T12:08:11.928Z,653.20
2022-10-21T12:10:45.412Z,592.63
2022-10-21T12:13:16.935Z,503.93
2022-10-21T12:15:48.133Z,408.87
2022-10-21T12:18:20.869Z,485.87
2022-10-21T12:20:50.737Z,485.27
2022-10-21T12:23:21.437Z,439.07
2022-10-21T12:25:57.667Z,478.77
2022-10-21T12:28:30.882Z,427.37
2022-10-21T12:31:02.847Z,472.43
2022-10-21T12:33:37.756Z,481.83
2022-10-21T12:36:38.626Z,517.17
2022-10-21T12:39:07.360Z,502.50
2022-10-21T12:41:36.521Z,477.93
2022-10-21T12:44:23.662Z,502.00
2022-10-21T12:46:53.655Z,451.47
2022-10-21T12:49:33.790Z,465.80
2022-10-21T12:52:09.109Z,503.60
2022-10-21T12:54:43.363Z,459.30
2022-10-21T12:57:13.207Z,455.60
2022-10-21T12:59:42.880Z,452.50
2022-10-21T13:02:25.676Z,436.50
2022-10-21T13:04:57.069Z,459.93
2022-10-21T13:07:33.060Z,448.80
2022-10-21T13:10:31.485Z,419.63
2022-10-21T13:13:30.705Z,496.83
2022-10-21T13:15:59.653Z,487.03
2022-10-21T13:18:56.457Z,451.47
2022-10-21T13:21:39.026Z,470.77
2022-10-21T13:24:14.456Z,446.17
2022-10-21T13:26:45.015Z,447.73
2022-10-21T13:29:24.232Z,395.10
2022-10-21T13:32:30.877Z,352.63
2022-10-21T13:35:32.072Z,450.37
2022-10-21T13:38:04.540Z,448.27
2022-10-21T13:40:38.066Z,391.50
2022-10-21T13:43:09.608Z,409.30
2022-10-21T13:48:15.729Z,407.33
2022-10-21T13:50:45.689Z,394.43
2022-10-21T13:53:32.968Z,431.73
2022-10-21T13:56:02.782Z,467.20
2022-10-21T13:58:38.926Z,474.00
2022-10-21T14:01:12.052Z,513.53
2022-10-21T14:03:42.135Z,487.03
2022-10-21T14:06:11.424Z,466.57
2022-10-21T14:08:42.990Z,466.33
2022-10-21T14:11:15.590Z,482.10
2022-10-21T14:13:43.782Z,497.37
2022-10-21T14:16:13.934Z,488.27
2022-10-21T14:18:46.583Z,528.77
2022-10-21T14:21:17.491Z,536.00
2022-10-21T14:23:47.653Z,518.63
2022-10-21T14:26:15.818Z,528.37
2022-10-21T14:28:44.161Z,484.13
2022-10-21T14:31:14.602Z,539.03
2022-10-21T14:33:45.124Z,512.73
2022-10-21T14:36:16.196Z,539.33
2022-10-21T14:38:53.172Z,553.50
2022-10-21T14:41:23.950Z,525.60
2022-10-21T14:43:52.960Z,552.23
2022-10-21T14:46:21.442Z,554.37
2022-10-21T14:48:52.765Z,564.77
2022-10-21T14:51:22.601Z,577.17
2022-10-21T14:53:55.906Z,542.10
2022-10-21T14:56:30.535Z,601.97
2022-10-21T14:59:00.320Z,591.03
2022-10-21T15:01:28.450Z,603.57
2022-10-21T15:03:58.294Z,571.10
2022-10-21T15:06:27.998Z,561.33
2022-10-21T15:09:08.803Z,583.00
2022-10-21T15:11:39.883Z,610.57
2022-10-21T15:14:31.822Z,569.87
2022-10-21T15:17:03.161Z,618.37
2022-10-21T15:19:42.586Z,621.87
2022-10-21T15:22:23.365Z,598.90
2022-10-21T15:24:53.815Z,629.23
2022-10-21T15:27:27.312Z,657.07
2022-10-21T15:29:55.668Z,655.07
2022-10-21T15:32:28.167Z,602.33
2022-10-21T15:34:58.947Z,657.37
2022-10-21T15:37:27.177Z,636.97
2022-10-21T15:39:56.825Z,608.00
2022-10-21T15:42:25.062Z,627.70
2022-10-21T15:44:53.119Z,628.30
2022-10-21T15:47:47.329Z,604.67
2022-10-21T15:50:18.323Z,671.50
2022-10-21T15:52:48.532Z,675.80
2022-10-21T15:55:33.810Z,632.17
2022-10-21T15:58:27.014Z,642.93
2022-10-21T16:01:41.621Z,711.00
2022-10-21T16:04:19.706Z,721.03
2022-10-21T16:06:59.637Z,688.40
2022-10-21T16:10:17.538Z,714.03
2022-10-21T16:13:23.622Z,767.00
2022-10-21T16:15:52.234Z,768.23
2022-10-21T16:18:55.565Z,730.30
2022-10-21T16:21:36.231Z,814.80
2022-10-21T16:24:19.525Z,796.50
2022-10-21T16:27:06.975Z,806.97
2022-10-21T16:29:36.488Z,811.27
2022-10-21T16:32:05.325Z,842.20
2022-10-21T16:34:49.471Z,828.17
2022-10-21T16:37:22.552Z,834.00
2022-10-21T16:39:50.936Z,846.93
2022-10-21T16:42:19.044Z,839.53
2022-10-21T16:45:07.093Z,879.07
2022-10-21T16:47:52.819Z,861.00
2022-10-21T16:50:23.331Z,882.13
2022-10-21T16:52:58.739Z,896.10
2022-10-21T16:55:52.307Z,902.30
2022-10-21T16:58:23.276Z,918.20
2022-10-21T17:00:52.926Z,905.40
2022-10-21T17:03:21.489Z,893.30
2022-10-21T17:05:53.419Z,905.30
2022-10-21T17:08:21.899Z,866.17
2022-10-21T17:10:50.285Z,862.60
2022-10-21T17:13:20.207Z,892.87
2022-10-21T17:15:52.845Z,886.93
2022-10-21T17:18:22.274Z,879.67
2022-10-21T17:20:53.605Z,857.17
2022-10-21T17:23:23.582Z,893.33
2022-10-21T17:25:51.758Z,872.93
2022-10-21T17:28:22.688Z,872.10
2022-10-21T17:31:30.619Z,877.37
2022-10-21T17:34:07.455Z,890.33
2022-10-21T17:37:23.230Z,880.43
2022-10-21T17:39:51.620Z,888.67
2022-10-21T17:42:21.910Z,883.43
2022-10-21T17:44:50.063Z,861.77
2022-10-21T17:47:20.665Z,894.80
2022-10-21T17:50:08.342Z,883.10
2022-10-21T17:52:46.566Z,914.43
2022-10-21T17:55:16.911Z,907.00
2022-10-21T17:57:45.723Z,911.37
2022-10-21T18:00:14.348Z,913.10
2022-10-21T18:02:42.539Z,896.13
2022-10-21T18:05:12.249Z,914.53
2022-10-21T18:07:46.206Z,908.07
2022-10-21T18:10:14.356Z,910.30
2022-10-21T18:12:45.051Z,914.20
2022-10-21T18:15:16.035Z,912.30
2022-10-21T18:17:44.139Z,890.17
2022-10-21T18:20:15.613Z,897.00
2022-10-21T18:22:45.933Z,887.90
2022-10-21T18:25:15.395Z,866.83
2022-10-21T18:30:13.092Z,870.40
2022-10-21T18:32:41.615Z,850.47
2022-10-21T18:35:10.774Z,844.20
2022-10-21T18:37:40.438Z,845.60
2022-10-21T18:40:12.159Z,845.30
2022-10-21T18:42:40.445Z,824.53
2022-10-21T18:45:09.320Z,827.80
2022-10-21T18:47:38.032Z,804.37
2022-10-21T18:50:08.351Z,804.90
2022-10-21T18:52:36.485Z,794.87
2022-10-21T18:57:42.641Z,798.80
2022-10-21T19:00:14.218Z,823.57
2022-10-21T19:02:42.528Z,794.90
2022-10-21T19:05:10.816Z,819.97
2022-10-21T19:07:39.210Z,819.87
2022-10-21T19:10:09.105Z,804.53
2022-10-21T19:12:37.351Z,801.43
2022-10-21T19:15:08.712Z,804.00
2022-10-21T19:17:37.876Z,822.53
2022-10-21T19:20:07.368Z,810.00
2022-10-21T19:22:35.504Z,810.50
2022-10-21T19:25:03.679Z,844.80
2022-10-21T19:27:33.303Z,804.77
2022-10-21T19:30:01.377Z,796.97
2022-10-21T19:32:31.027Z,805.47
2022-10-21T19:34:59.085Z,841.53
2022-10-21T19:37:27.134Z,819.07
2022-10-21T19:39:55.213Z,826.47
2022-10-21T19:42:23.409Z,802.73
2022-10-21T19:44:52.889Z,815.10
2022-10-21T19:47:20.943Z,788.77
2022-10-21T19:49:49.301Z,818.20
2022-10-21T19:52:17.425Z,818.03
2022-10-21T19:54:49.273Z,799.03
2022-10-21T19:57:17.496Z,805.67
2022-10-21T19:59:49.045Z,824.13
2022-10-21T20:02:28.429Z,825.33
2022-10-21T20:04:56.736Z,800.77
2022-10-21T20:07:25.045Z,798.23
2022-10-21T20:09:53.225Z,813.77
2022-10-21T20:12:21.397Z,824.13
2022-10-21T20:19:09.731Z,824.37
2022-10-21T20:21:38.460Z,827.80
2022-10-21T20:24:07.478Z,826.90
2022-10-21T20:26:35.951Z,841.47
2022-10-21T20:29:04.425Z,824.50
2022-10-21T20:31:32.777Z,815.37
2022-10-21T20:34:00.992Z,826.43
2022-10-21T20:36:33.435Z,821.87
2022-10-21T20:39:10.371Z,818.03
2022-10-21T20:41:38.678Z,797.00
2022-10-21T20:44:09.132Z,825.93
2022-10-21T20:46:37.379Z,811.13
2022-10-21T20:49:06.712Z,811.43
2022-10-21T20:51:37.938Z,820.33
2022-10-21T20:54:07.723Z,822.53
2022-10-21T20:56:38.235Z,830.13
2022-10-21T20:59:07.068Z,823.77
2022-10-21T21:01:37.455Z,812.40
2022-10-21T21:04:08.220Z,833.07
2022-10-21T21:06:40.295Z,830.60
2022-10-21T21:09:33.092Z,829.97
2022-10-21T21:11:56.699Z,811.50
2022-10-21T21:14:24.839Z,847.73
2022-10-21T21:16:52.883Z,826.10
2022-10-21T21:19:20.963Z,834.03
2022-10-21T21:21:53.444Z,812.37
2022-10-21T21:24:21.637Z,823.67
2022-10-21T21:26:49.749Z,835.07
2022-10-21T21:29:17.791Z,813.77
2022-10-21T21:31:45.960Z,810.17
2022-10-21T21:34:14.302Z,830.10
2022-10-21T21:36:42.507Z,831.73
2022-10-21T21:41:46.465Z,854.93
2022-10-21T21:44:14.679Z,845.77
2022-10-21T21:46:42.828Z,839.23
2022-10-21T21:49:10.863Z,826.10
2022-10-21T21:51:39.028Z,792.47
2022-10-21T21:54:08.465Z,806.87
2022-10-21T21:56:37.899Z,842.27
2022-10-21T21:59:06.104Z,815.50
2022-10-21T22:01:34.259Z,827.37
2022-10-21T22:04:03.672Z,822.53
2022-10-21T22:06:35.790Z,823.70
2022-10-21T22:09:10.160Z,827.77
2022-10-21T22:11:40.276Z,827.07
2022-10-21T22:14:08.476Z,811.77
2022-10-21T22:16:36.812Z,833.20
2022-10-21T22:19:06.138Z,809.97
2022-10-21T22:21:34.248Z,824.43
2022-10-21T22:24:02.325Z,825.23
2022-10-21T22:26:32.339Z,836.90
2022-10-21T22:29:01.777Z,809.83
2022-10-21T22:31:30.890Z,824.07
2022-10-21T22:34:00.842Z,811.40
2022-10-21T22:36:29.074Z,853.47
2022-10-21T22:38:57.155Z,817.97
2022-10-21T22:41:25.250Z,841.60
2022-10-21T22:43:53.392Z,818.10
2022-10-21T22:46:34.288Z,828.97
2022-10-21T22:49:03.802Z,822.57
2022-10-21T22:51:32.003Z,816.23
2022-10-21T22:54:01.150Z,831.40
2022-10-21T22:56:29.533Z,849.33
2022-10-21T22:58:58.247Z,825.60
2022-10-21T23:01:30.426Z,824.03
2022-10-21T23:04:02.496Z,843.30
2022-10-21T23:06:30.877Z,823.93
2022-10-21T23:08:59.154Z,843.03
2022-10-21T23:11:27.325Z,824.50
2022-10-21T23:14:02.865Z,815.27
2022-10-21T23:16:33.472Z,815.43
2022-10-21T23:19:01.591Z,824.37
2022-10-21T23:21:29.693Z,830.53
2022-10-21T23:23:57.770Z,822.47
2022-10-21T23:26:25.940Z,854.53
2022-10-21T23:28:54.081Z,819.40
2022-10-21T23:31:22.722Z,821.40
2022-10-21T23:33:55.190Z,830.03
2022-10-21T23:36:23.266Z,830.60
2022-10-21T23:38:55.259Z,849.93
2022-10-21T23:41:23.871Z,825.80
2022-10-21T23:43:51.951Z,818.67
2022-10-21T23:46:20.278Z,825.47
2022-10-21T23:48:48.562Z,834.37
2022-10-21T23:51:21.629Z,829.47
2022-10-21T23:53:49.782Z,818.20
2022-10-21T23:56:17.882Z,845.53
2022-10-21T23:58:45.874Z,801.37
